sensor_id;sensor_type;location;lat;lon;timestamp;temperature;humidity
82183;DHT22;71763;52.220;13.000;2023-09-30T00:01:18;17.50;53.20
82183;DHT22;71763;52.220;13.000;2023-09-30T00:03:44;17.40;53.20
82183;DHT22;71763;52.220;13.000;2023-09-30T00:06:10;17.30;53.50
82183;DHT22;71763;52.220;13.000;2023-09-30T00:08:35;17.20;53.60
82183;DHT22;71763;52.220;13.000;2023-09-30T00:11:01;17.10;53.60
82183;DHT22;71763;52.220;13.000;2023-09-30T00:13:28;17.10;53.80
82183;DHT22;71763;52.220;13.000;2023-09-30T00:15:53;17.10;53.80
82183;DHT22;71763;52.220;13.000;2023-09-30T00:18:19;17.00;53.80
82183;DHT22;71763;52.220;13.000;2023-09-30T00:20:45;16.90;53.80
82183;DHT22;71763;52.220;13.000;2023-09-30T00:23:10;16.80;53.90
82183;DHT22;71763;52.220;13.000;2023-09-30T00:25:36;16.80;53.90
82183;DHT22;71763;52.220;13.000;2023-09-30T00:28:01;16.70;53.90
82183;DHT22;71763;52.220;13.000;2023-09-30T00:30:27;16.70;54.00
82183;DHT22;71763;52.220;13.000;2023-09-30T00:32:52;16.60;54.00
82183;DHT22;71763;52.220;13.000;2023-09-30T00:35:18;16.60;54.10
82183;DHT22;71763;52.220;13.000;2023-09-30T00:37:43;16.50;54.00
82183;DHT22;71763;52.220;13.000;2023-09-30T00:40:10;16.50;54.00
82183;DHT22;71763;52.220;13.000;2023-09-30T00:42:39;16.40;54.00
82183;DHT22;71763;52.220;13.000;2023-09-30T00:45:05;16.40;54.10
82183;DHT22;71763;52.220;13.000;2023-09-30T00:47:31;16.30;54.00
82183;DHT22;71763;52.220;13.000;2023-09-30T00:49:57;16.30;54.00
82183;DHT22;71763;52.220;13.000;2023-09-30T00:52:22;16.20;54.10
82183;DHT22;71763;52.220;13.000;2023-09-30T00:54:49;16.20;54.10
82183;DHT22;71763;52.220;13.000;2023-09-30T00:57:16;16.10;54.10
82183;DHT22;71763;52.220;13.000;2023-09-30T00:59:42;16.10;54.20
82183;DHT22;71763;52.220;13.000;2023-09-30T01:02:08;16.00;54.30
82183;DHT22;71763;52.220;13.000;2023-09-30T01:04:33;15.90;54.30
82183;DHT22;71763;52.220;13.000;2023-09-30T01:06:59;15.90;54.30
82183;DHT22;71763;52.220;13.000;2023-09-30T01:09:24;15.80;54.30
82183;DHT22;71763;52.220;13.000;2023-09-30T01:11:50;15.80;54.40
82183;DHT22;71763;52.220;13.000;2023-09-30T01:16:55;15.70;54.40
82183;DHT22;71763;52.220;13.000;2023-09-30T01:19:21;15.60;54.40
82183;DHT22;71763;52.220;13.000;2023-09-30T01:21:49;15.60;54.50
82183;DHT22;71763;52.220;13.000;2023-09-30T01:24:15;15.50;54.40
82183;DHT22;71763;52.220;13.000;2023-09-30T01:26:40;15.50;54.50
82183;DHT22;71763;52.220;13.000;2023-09-30T01:29:08;15.40;54.50
82183;DHT22;71763;52.220;13.000;2023-09-30T01:31:37;15.40;54.60
82183;DHT22;71763;52.220;13.000;2023-09-30T01:34:02;15.30;54.70
82183;DHT22;71763;52.220;13.000;2023-09-30T01:36:28;15.20;54.70
82183;DHT22;71763;52.220;13.000;2023-09-30T01:38:54;15.20;54.80
82183;DHT22;71763;52.220;13.000;2023-09-30T01:41:19;15.10;54.70
82183;DHT22;71763;52.220;13.000;2023-09-30T01:43:45;15.10;54.70
82183;DHT22;71763;52.220;13.000;2023-09-30T01:46:12;15.10;54.80
82183;DHT22;71763;52.220;13.000;2023-09-30T01:48:37;15.00;54.70
82183;DHT22;71763;52.220;13.000;2023-09-30T01:51:03;15.00;54.80
82183;DHT22;71763;52.220;13.000;2023-09-30T01:53:28;14.90;54.80
82183;DHT22;71763;52.220;13.000;2023-09-30T01:55:54;14.90;54.80
82183;DHT22;71763;52.220;13.000;2023-09-30T01:58:19;14.90;54.90
82183;DHT22;71763;52.220;13.000;2023-09-30T02:00:45;14.80;54.90
82183;DHT22;71763;52.220;13.000;2023-09-30T02:03:10;14.70;54.90
82183;DHT22;71763;52.220;13.000;2023-09-30T02:05:38;14.70;55.10
82183;DHT22;71763;52.220;13.000;2023-09-30T02:08:04;14.60;55.10
82183;DHT22;71763;52.220;13.000;2023-09-30T02:10:31;14.50;55.10
82183;DHT22;71763;52.220;13.000;2023-09-30T02:12:58;14.50;55.20
82183;DHT22;71763;52.220;13.000;2023-09-30T02:15:25;14.40;55.20
82183;DHT22;71763;52.220;13.000;2023-09-30T02:17:51;14.30;55.60
82183;DHT22;71763;52.220;13.000;2023-09-30T02:20:17;14.20;55.70
82183;DHT22;71763;52.220;13.000;2023-09-30T02:22:45;14.20;55.80
82183;DHT22;71763;52.220;13.000;2023-09-30T02:25:12;14.10;55.70
82183;DHT22;71763;52.220;13.000;2023-09-30T02:27:40;14.10;55.70
82183;DHT22;71763;52.220;13.000;2023-09-30T02:30:07;14.00;55.60
82183;DHT22;71763;52.220;13.000;2023-09-30T02:32:33;14.00;55.60
82183;DHT22;71763;52.220;13.000;2023-09-30T02:34:59;13.90;55.60
82183;DHT22;71763;52.220;13.000;2023-09-30T02:37:24;13.90;55.50
82183;DHT22;71763;52.220;13.000;2023-09-30T02:39:51;13.80;55.40
82183;DHT22;71763;52.220;13.000;2023-09-30T02:42:16;13.80;55.40
82183;DHT22;71763;52.220;13.000;2023-09-30T02:44:42;13.70;55.40
82183;DHT22;71763;52.220;13.000;2023-09-30T02:47:07;13.60;55.30
82183;DHT22;71763;52.220;13.000;2023-09-30T02:49:34;13.50;55.20
82183;DHT22;71763;52.220;13.000;2023-09-30T02:51:59;13.50;55.50
82183;DHT22;71763;52.220;13.000;2023-09-30T02:54:25;13.40;55.40
82183;DHT22;71763;52.220;13.000;2023-09-30T02:56:51;13.40;55.60
82183;DHT22;71763;52.220;13.000;2023-09-30T02:59:17;13.40;55.60
82183;DHT22;71763;52.220;13.000;2023-09-30T03:01:44;13.30;55.50
82183;DHT22;71763;52.220;13.000;2023-09-30T03:04:10;13.30;55.60
82183;DHT22;71763;52.220;13.000;2023-09-30T03:06:38;13.30;55.50
82183;DHT22;71763;52.220;13.000;2023-09-30T03:09:04;13.30;55.50
82183;DHT22;71763;52.220;13.000;2023-09-30T03:11:30;13.30;55.50
82183;DHT22;71763;52.220;13.000;2023-09-30T03:13:56;13.30;55.50
82183;DHT22;71763;52.220;13.000;2023-09-30T03:16:22;13.30;55.50
82183;DHT22;71763;52.220;13.000;2023-09-30T03:18:49;13.20;55.40
82183;DHT22;71763;52.220;13.000;2023-09-30T03:21:15;13.20;55.50
82183;DHT22;71763;52.220;13.000;2023-09-30T03:23:42;13.20;55.50
82183;DHT22;71763;52.220;13.000;2023-09-30T03:26:07;13.20;55.60
82183;DHT22;71763;52.220;13.000;2023-09-30T03:28:36;13.20;55.70
82183;DHT22;71763;52.220;13.000;2023-09-30T03:31:03;13.20;55.70
82183;DHT22;71763;52.220;13.000;2023-09-30T03:33:32;13.10;55.70
82183;DHT22;71763;52.220;13.000;2023-09-30T03:35:59;13.10;55.70
82183;DHT22;71763;52.220;13.000;2023-09-30T03:38:25;13.10;55.70
82183;DHT22;71763;52.220;13.000;2023-09-30T03:40:51;13.10;55.80
82183;DHT22;71763;52.220;13.000;2023-09-30T03:43:19;13.10;55.80
82183;DHT22;71763;52.220;13.000;2023-09-30T03:45:44;13.10;55.80
82183;DHT22;71763;52.220;13.000;2023-09-30T03:48:10;13.10;55.80
82183;DHT22;71763;52.220;13.000;2023-09-30T03:50:37;13.00;55.80
82183;DHT22;71763;52.220;13.000;2023-09-30T03:53:03;13.00;55.90
82183;DHT22;71763;52.220;13.000;2023-09-30T03:55:30;13.00;56.00
82183;DHT22;71763;52.220;13.000;2023-09-30T03:57:57;13.00;56.10
82183;DHT22;71763;52.220;13.000;2023-09-30T04:00:23;12.90;56.00
82183;DHT22;71763;52.220;13.000;2023-09-30T04:02:49;12.90;56.10
82183;DHT22;71763;52.220;13.000;2023-09-30T04:05:17;12.90;56.10
82183;DHT22;71763;52.220;13.000;2023-09-30T04:07:44;12.90;56.10
82183;DHT22;71763;52.220;13.000;2023-09-30T04:10:10;12.90;56.20
82183;DHT22;71763;52.220;13.000;2023-09-30T04:12:35;12.90;56.20
82183;DHT22;71763;52.220;13.000;2023-09-30T04:15:01;12.80;56.10
82183;DHT22;71763;52.220;13.000;2023-09-30T04:17:30;12.80;56.20
82183;DHT22;71763;52.220;13.000;2023-09-30T04:19:56;12.80;56.20
82183;DHT22;71763;52.220;13.000;2023-09-30T04:22:22;12.80;56.30
82183;DHT22;71763;52.220;13.000;2023-09-30T04:24:50;12.70;56.20
82183;DHT22;71763;52.220;13.000;2023-09-30T04:27:15;12.70;56.30
82183;DHT22;71763;52.220;13.000;2023-09-30T04:29:41;12.70;56.40
82183;DHT22;71763;52.220;13.000;2023-09-30T04:32:07;12.70;56.50
82183;DHT22;71763;52.220;13.000;2023-09-30T04:34:33;12.60;56.40
82183;DHT22;71763;52.220;13.000;2023-09-30T04:36:58;12.60;56.50
82183;DHT22;71763;52.220;13.000;2023-09-30T04:39:25;12.60;56.60
82183;DHT22;71763;52.220;13.000;2023-09-30T04:41:50;12.50;56.60
82183;DHT22;71763;52.220;13.000;2023-09-30T04:44:16;12.50;56.70
82183;DHT22;71763;52.220;13.000;2023-09-30T04:46:41;12.50;56.80
82183;DHT22;71763;52.220;13.000;2023-09-30T04:49:12;12.50;56.80
82183;DHT22;71763;52.220;13.000;2023-09-30T04:51:38;12.50;56.90
82183;DHT22;71763;52.220;13.000;2023-09-30T04:54:05;12.40;56.90
82183;DHT22;71763;52.220;13.000;2023-09-30T04:56:32;12.40;56.90
82183;DHT22;71763;52.220;13.000;2023-09-30T04:58:57;12.30;56.90
82183;DHT22;71763;52.220;13.000;2023-09-30T05:01:24;12.30;57.00
82183;DHT22;71763;52.220;13.000;2023-09-30T05:03:50;12.30;57.00
82183;DHT22;71763;52.220;13.000;2023-09-30T05:06:16;12.30;57.10
82183;DHT22;71763;52.220;13.000;2023-09-30T05:08:41;12.20;57.00
82183;DHT22;71763;52.220;13.000;2023-09-30T05:11:07;12.20;57.00
82183;DHT22;71763;52.220;13.000;2023-09-30T05:13:32;12.20;57.00
82183;DHT22;71763;52.220;13.000;2023-09-30T05:15:59;12.20;57.00
82183;DHT22;71763;52.220;13.000;2023-09-30T05:18:25;12.20;57.00
82183;DHT22;71763;52.220;13.000;2023-09-30T05:20:50;12.20;57.10
82183;DHT22;71763;52.220;13.000;2023-09-30T05:23:16;12.20;57.20
82183;DHT22;71763;52.220;13.000;2023-09-30T05:25:43;12.20;57.20
82183;DHT22;71763;52.220;13.000;2023-09-30T05:28:08;12.20;57.10
82183;DHT22;71763;52.220;13.000;2023-09-30T05:30:34;12.20;57.20
82183;DHT22;71763;52.220;13.000;2023-09-30T05:33:00;12.20;57.10
82183;DHT22;71763;52.220;13.000;2023-09-30T05:35:26;12.20;57.10
82183;DHT22;71763;52.220;13.000;2023-09-30T05:37:53;12.20;57.00
82183;DHT22;71763;52.220;13.000;2023-09-30T05:40:19;12.30;57.10
82183;DHT22;71763;52.220;13.000;2023-09-30T05:42:47;12.30;57.00
82183;DHT22;71763;52.220;13.000;2023-09-30T05:45:15;12.40;56.90
82183;DHT22;71763;52.220;13.000;2023-09-30T05:47:41;12.50;56.80
82183;DHT22;71763;52.220;13.000;2023-09-30T05:50:08;12.60;56.70
82183;DHT22;71763;52.220;13.000;2023-09-30T05:52:34;12.60;56.60
82183;DHT22;71763;52.220;13.000;2023-09-30T05:55:02;12.70;56.50
82183;DHT22;71763;52.220;13.000;2023-09-30T05:57:28;12.80;57.20
82183;DHT22;71763;52.220;13.000;2023-09-30T05:59:54;12.80;56.40
82183;DHT22;71763;52.220;13.000;2023-09-30T06:02:19;12.90;56.50
82183;DHT22;71763;52.220;13.000;2023-09-30T06:04:45;13.00;56.50
82183;DHT22;71763;52.220;13.000;2023-09-30T06:07:12;13.00;56.50
82183;DHT22;71763;52.220;13.000;2023-09-30T06:09:37;13.10;56.60
82183;DHT22;71763;52.220;13.000;2023-09-30T06:12:03;13.10;56.50
82183;DHT22;71763;52.220;13.000;2023-09-30T06:14:32;13.10;56.40
82183;DHT22;71763;52.220;13.000;2023-09-30T06:16:58;13.20;56.50
82183;DHT22;71763;52.220;13.000;2023-09-30T06:19:23;13.20;56.50
82183;DHT22;71763;52.220;13.000;2023-09-30T06:21:51;13.30;56.60
82183;DHT22;71763;52.220;13.000;2023-09-30T06:24:17;13.30;56.60
82183;DHT22;71763;52.220;13.000;2023-09-30T06:26:45;13.30;56.80
82183;DHT22;71763;52.220;13.000;2023-09-30T06:29:10;13.30;56.80
82183;DHT22;71763;52.220;13.000;2023-09-30T06:31:37;13.30;56.80
82183;DHT22;71763;52.220;13.000;2023-09-30T06:34:02;13.30;56.80
82183;DHT22;71763;52.220;13.000;2023-09-30T06:36:29;13.40;56.90
82183;DHT22;71763;52.220;13.000;2023-09-30T06:38:54;13.40;56.90
82183;DHT22;71763;52.220;13.000;2023-09-30T06:41:20;13.40;56.90
82183;DHT22;71763;52.220;13.000;2023-09-30T06:43:46;13.50;56.80
82183;DHT22;71763;52.220;13.000;2023-09-30T06:46:12;13.60;56.80
82183;DHT22;71763;52.220;13.000;2023-09-30T06:48:39;13.70;56.70
82183;DHT22;71763;52.220;13.000;2023-09-30T06:51:07;13.80;56.40
82183;DHT22;71763;52.220;13.000;2023-09-30T06:53:33;14.00;56.30
82183;DHT22;71763;52.220;13.000;2023-09-30T06:55:58;14.20;55.90
82183;DHT22;71763;52.220;13.000;2023-09-30T06:58:24;14.30;55.90
82183;DHT22;71763;52.220;13.000;2023-09-30T07:00:50;14.50;56.00
82183;DHT22;71763;52.220;13.000;2023-09-30T07:03:17;14.60;56.10
82183;DHT22;71763;52.220;13.000;2023-09-30T07:05:43;14.60;56.80
82183;DHT22;71763;52.220;13.000;2023-09-30T07:08:09;14.70;56.20
82183;DHT22;71763;52.220;13.000;2023-09-30T07:10:35;14.70;56.20
82183;DHT22;71763;52.220;13.000;2023-09-30T07:13:04;14.70;56.20
82183;DHT22;71763;52.220;13.000;2023-09-30T07:15:30;14.80;56.30
82183;DHT22;71763;52.220;13.000;2023-09-30T07:17:55;14.80;56.30
82183;DHT22;71763;52.220;13.000;2023-09-30T07:20:21;14.80;56.30
82183;DHT22;71763;52.220;13.000;2023-09-30T07:22:48;14.90;56.40
82183;DHT22;71763;52.220;13.000;2023-09-30T07:25:14;15.00;56.50
82183;DHT22;71763;52.220;13.000;2023-09-30T07:27:43;15.10;56.60
82183;DHT22;71763;52.220;13.000;2023-09-30T07:30:08;15.10;56.40
82183;DHT22;71763;52.220;13.000;2023-09-30T07:32:35;15.20;56.50
82183;DHT22;71763;52.220;13.000;2023-09-30T07:35:00;15.30;56.30
82183;DHT22;71763;52.220;13.000;2023-09-30T07:37:26;15.30;56.30
82183;DHT22;71763;52.220;13.000;2023-09-30T07:39:52;15.30;56.40
82183;DHT22;71763;52.220;13.000;2023-09-30T07:42:17;15.30;57.00
82183;DHT22;71763;52.220;13.000;2023-09-30T07:44:43;15.30;56.60
82183;DHT22;71763;52.220;13.000;2023-09-30T07:47:08;15.30;56.70
82183;DHT22;71763;52.220;13.000;2023-09-30T07:49:34;15.40;56.80
82183;DHT22;71763;52.220;13.000;2023-09-30T07:52:00;15.40;56.60
82183;DHT22;71763;52.220;13.000;2023-09-30T07:54:26;15.50;56.60
82183;DHT22;71763;52.220;13.000;2023-09-30T07:56:52;15.60;56.50
82183;DHT22;71763;52.220;13.000;2023-09-30T07:59:17;15.60;56.30
82183;DHT22;71763;52.220;13.000;2023-09-30T08:01:43;15.80;56.20
82183;DHT22;71763;52.220;13.000;2023-09-30T08:04:08;15.90;56.10
82183;DHT22;71763;52.220;13.000;2023-09-30T08:06:34;15.90;55.90
82183;DHT22;71763;52.220;13.000;2023-09-30T08:08:59;16.10;55.80
82183;DHT22;71763;52.220;13.000;2023-09-30T08:11:25;16.20;55.70
82183;DHT22;71763;52.220;13.000;2023-09-30T08:13:55;16.20;55.60
82183;DHT22;71763;52.220;13.000;2023-09-30T08:16:21;16.20;55.60
82183;DHT22;71763;52.220;13.000;2023-09-30T08:18:47;16.30;55.70
82183;DHT22;71763;52.220;13.000;2023-09-30T08:21:12;16.30;55.70
82183;DHT22;71763;52.220;13.000;2023-09-30T08:23:38;16.40;55.80
82183;DHT22;71763;52.220;13.000;2023-09-30T08:26:06;16.50;55.70
82183;DHT22;71763;52.220;13.000;2023-09-30T08:28:32;16.50;55.60
82183;DHT22;71763;52.220;13.000;2023-09-30T08:31:04;16.60;55.50
82183;DHT22;71763;52.220;13.000;2023-09-30T08:33:31;16.70;55.40
82183;DHT22;71763;52.220;13.000;2023-09-30T08:36:03;16.90;55.40
82183;DHT22;71763;52.220;13.000;2023-09-30T08:38:36;17.00;55.20
82183;DHT22;71763;52.220;13.000;2023-09-30T08:41:03;17.20;54.90
82183;DHT22;71763;52.220;13.000;2023-09-30T08:43:29;17.40;54.70
82183;DHT22;71763;52.220;13.000;2023-09-30T08:45:57;17.60;54.30
82183;DHT22;71763;52.220;13.000;2023-09-30T08:48:23;17.70;54.10
82183;DHT22;71763;52.220;13.000;2023-09-30T08:50:53;17.90;53.60
82183;DHT22;71763;52.220;13.000;2023-09-30T08:53:19;18.20;54.00
82183;DHT22;71763;52.220;13.000;2023-09-30T08:55:46;18.50;54.10
82183;DHT22;71763;52.220;13.000;2023-09-30T08:58:12;18.80;54.30
82183;DHT22;71763;52.220;13.000;2023-09-30T09:00:39;18.90;53.60
82183;DHT22;71763;52.220;13.000;2023-09-30T09:03:06;19.20;53.30
82183;DHT22;71763;52.220;13.000;2023-09-30T09:05:33;19.60;53.00
82183;DHT22;71763;52.220;13.000;2023-09-30T09:07:58;19.80;52.60
82183;DHT22;71763;52.220;13.000;2023-09-30T09:10:24;20.20;52.40
82183;DHT22;71763;52.220;13.000;2023-09-30T09:12:58;20.50;52.10
82183;DHT22;71763;52.220;13.000;2023-09-30T09:15:28;20.90;51.60
82183;DHT22;71763;52.220;13.000;2023-09-30T09:17:54;21.20;50.90
82183;DHT22;71763;52.220;13.000;2023-09-30T09:20:29;21.40;51.10
82183;DHT22;71763;52.220;13.000;2023-09-30T09:22:55;21.80;50.80
82183;DHT22;71763;52.220;13.000;2023-09-30T09:25:22;22.00;50.40
82183;DHT22;71763;52.220;13.000;2023-09-30T09:27:49;22.20;50.30
82183;DHT22;71763;52.220;13.000;2023-09-30T09:30:32;22.20;50.50
82183;DHT22;71763;52.220;13.000;2023-09-30T09:33:02;22.40;50.60
82183;DHT22;71763;52.220;13.000;2023-09-30T09:35:34;22.60;50.50
82183;DHT22;71763;52.220;13.000;2023-09-30T09:38:05;22.90;50.30
82183;DHT22;71763;52.220;13.000;2023-09-30T09:40:32;22.90;50.10
82183;DHT22;71763;52.220;13.000;2023-09-30T09:42:59;22.80;50.10
82183;DHT22;71763;52.220;13.000;2023-09-30T09:45:26;22.90;50.40
82183;DHT22;71763;52.220;13.000;2023-09-30T09:47:54;23.10;50.30
82183;DHT22;71763;52.220;13.000;2023-09-30T09:50:20;23.30;50.20
82183;DHT22;71763;52.220;13.000;2023-09-30T09:52:50;23.40;49.90
82183;DHT22;71763;52.220;13.000;2023-09-30T09:55:20;23.50;49.80
82183;DHT22;71763;52.220;13.000;2023-09-30T09:57:47;23.70;49.50
82183;DHT22;71763;52.220;13.000;2023-09-30T10:00:21;24.10;48.80
82183;DHT22;71763;52.220;13.000;2023-09-30T10:02:49;24.30;48.00
82183;DHT22;71763;52.220;13.000;2023-09-30T10:05:16;24.70;48.40
82183;DHT22;71763;52.220;13.000;2023-09-30T10:10:19;25.30;48.00
82183;DHT22;71763;52.220;13.000;2023-09-30T10:12:45;25.10;48.70
82183;DHT22;71763;52.220;13.000;2023-09-30T10:18:00;25.50;48.40
82183;DHT22;71763;52.220;13.000;2023-09-30T10:20:30;25.70;47.60
82183;DHT22;71763;52.220;13.000;2023-09-30T10:23:19;25.90;47.40
82183;DHT22;71763;52.220;13.000;2023-09-30T10:25:45;26.00;47.20
82183;DHT22;71763;52.220;13.000;2023-09-30T10:28:35;26.10;47.20
82183;DHT22;71763;52.220;13.000;2023-09-30T10:31:13;26.40;46.90
82183;DHT22;71763;52.220;13.000;2023-09-30T10:34:20;26.30;46.80
82183;DHT22;71763;52.220;13.000;2023-09-30T10:36:46;25.80;47.40
82183;DHT22;71763;52.220;13.000;2023-09-30T10:39:13;25.20;48.70
82183;DHT22;71763;52.220;13.000;2023-09-30T10:46:56;23.30;50.50
82183;DHT22;71763;52.220;13.000;2023-09-30T10:51:50;22.70;51.20
82183;DHT22;71763;52.220;13.000;2023-09-30T10:54:22;22.70;51.00
82183;DHT22;71763;52.220;13.000;2023-09-30T10:56:51;23.00;50.60
82183;DHT22;71763;52.220;13.000;2023-09-30T10:59:25;23.00;49.90
82183;DHT22;71763;52.220;13.000;2023-09-30T11:01:51;22.90;49.90
82183;DHT22;71763;52.220;13.000;2023-09-30T11:04:20;22.70;50.10
82183;DHT22;71763;52.220;13.000;2023-09-30T11:06:46;22.50;50.10
82183;DHT22;71763;52.220;13.000;2023-09-30T11:09:20;22.20;50.30
82183;DHT22;71763;52.220;13.000;2023-09-30T11:11:48;22.10;50.50
82183;DHT22;71763;52.220;13.000;2023-09-30T11:14:31;22.50;50.00
82183;DHT22;71763;52.220;13.000;2023-09-30T11:16:59;22.80;49.00
82183;DHT22;71763;52.220;13.000;2023-09-30T11:19:32;23.00;48.60
82183;DHT22;71763;52.220;13.000;2023-09-30T11:21:59;23.30;47.90
82183;DHT22;71763;52.220;13.000;2023-09-30T11:24:24;23.50;47.30
82183;DHT22;71763;52.220;13.000;2023-09-30T11:26:53;23.80;47.60
82183;DHT22;71763;52.220;13.000;2023-09-30T11:29:21;24.00;47.80
82183;DHT22;71763;52.220;13.000;2023-09-30T11:31:48;24.30;48.00
82183;DHT22;71763;52.220;13.000;2023-09-30T11:34:15;24.50;47.20
82183;DHT22;71763;52.220;13.000;2023-09-30T11:36:48;24.70;46.80
82183;DHT22;71763;52.220;13.000;2023-09-30T11:39:26;24.90;46.70
82183;DHT22;71763;52.220;13.000;2023-09-30T11:41:53;25.10;46.40
82183;DHT22;71763;52.220;13.000;2023-09-30T11:44:20;25.10;46.40
82183;DHT22;71763;52.220;13.000;2023-09-30T11:46:56;25.20;46.40
82183;DHT22;71763;52.220;13.000;2023-09-30T11:49:40;25.20;46.40
82183;DHT22;71763;52.220;13.000;2023-09-30T11:52:11;25.00;46.70
82183;DHT22;71763;52.220;13.000;2023-09-30T11:54:41;24.80;47.10
82183;DHT22;71763;52.220;13.000;2023-09-30T11:57:09;24.90;47.20
82183;DHT22;71763;52.220;13.000;2023-09-30T11:59:35;25.00;47.00
82183;DHT22;71763;52.220;13.000;2023-09-30T12:02:01;24.90;47.10
82183;DHT22;71763;52.220;13.000;2023-09-30T12:04:29;24.70;47.40
82183;DHT22;71763;52.220;13.000;2023-09-30T12:06:54;24.40;47.90
82183;DHT22;71763;52.220;13.000;2023-09-30T12:09:20;24.10;47.80
82183;DHT22;71763;52.220;13.000;2023-09-30T12:11:51;23.70;47.50
82183;DHT22;71763;52.220;13.000;2023-09-30T12:14:16;23.30;47.90
82183;DHT22;71763;52.220;13.000;2023-09-30T12:16:42;23.10;48.40
82183;DHT22;71763;52.220;13.000;2023-09-30T12:19:11;22.90;48.40
82183;DHT22;71763;52.220;13.000;2023-09-30T12:21:36;22.90;48.40
82183;DHT22;71763;52.220;13.000;2023-09-30T12:24:02;22.90;48.30
82183;DHT22;71763;52.220;13.000;2023-09-30T12:26:29;23.10;47.80
82183;DHT22;71763;52.220;13.000;2023-09-30T12:28:55;23.20;47.00
82183;DHT22;71763;52.220;13.000;2023-09-30T12:31:22;23.10;47.00
82183;DHT22;71763;52.220;13.000;2023-09-30T12:33:48;23.00;47.20
82183;DHT22;71763;52.220;13.000;2023-09-30T12:36:19;22.80;47.60
82183;DHT22;71763;52.220;13.000;2023-09-30T12:38:45;22.60;47.80
82183;DHT22;71763;52.220;13.000;2023-09-30T12:41:11;22.50;47.90
82183;DHT22;71763;52.220;13.000;2023-09-30T12:43:37;22.40;47.90
82183;DHT22;71763;52.220;13.000;2023-09-30T12:46:02;22.30;47.90
82183;DHT22;71763;52.220;13.000;2023-09-30T12:48:30;22.30;47.90
82183;DHT22;71763;52.220;13.000;2023-09-30T12:50:55;22.40;47.70
82183;DHT22;71763;52.220;13.000;2023-09-30T12:53:21;22.40;47.20
82183;DHT22;71763;52.220;13.000;2023-09-30T12:55:46;22.30;47.10
82183;DHT22;71763;52.220;13.000;2023-09-30T12:58:12;22.30;47.20
82183;DHT22;71763;52.220;13.000;2023-09-30T13:00:37;22.40;47.00
82183;DHT22;71763;52.220;13.000;2023-09-30T13:03:03;22.50;46.40
82183;DHT22;71763;52.220;13.000;2023-09-30T13:05:29;22.60;46.50
82183;DHT22;71763;52.220;13.000;2023-09-30T13:07:55;22.50;46.40
82183;DHT22;71763;52.220;13.000;2023-09-30T13:10:22;22.40;46.30
82183;DHT22;71763;52.220;13.000;2023-09-30T13:12:47;22.30;46.20
82183;DHT22;71763;52.220;13.000;2023-09-30T13:15:15;22.20;46.20
82183;DHT22;71763;52.220;13.000;2023-09-30T13:17:42;22.00;46.60
82183;DHT22;71763;52.220;13.000;2023-09-30T13:20:08;21.80;46.80
82183;DHT22;71763;52.220;13.000;2023-09-30T13:22:34;21.70;47.00
82183;DHT22;71763;52.220;13.000;2023-09-30T13:25:06;21.60;47.00
82183;DHT22;71763;52.220;13.000;2023-09-30T13:27:33;21.60;47.00
82183;DHT22;71763;52.220;13.000;2023-09-30T13:29:59;21.50;46.90
82183;DHT22;71763;52.220;13.000;2023-09-30T13:32:25;21.60;46.80
82183;DHT22;71763;52.220;13.000;2023-09-30T13:34:51;21.70;46.40
82183;DHT22;71763;52.220;13.000;2023-09-30T13:37:17;21.80;45.80
82183;DHT22;71763;52.220;13.000;2023-09-30T13:39:42;21.90;45.90
82183;DHT22;71763;52.220;13.000;2023-09-30T13:42:08;22.00;46.00
82183;DHT22;71763;52.220;13.000;2023-09-30T13:44:34;22.10;46.10
82183;DHT22;71763;52.220;13.000;2023-09-30T13:47:00;22.20;46.20
82183;DHT22;71763;52.220;13.000;2023-09-30T13:49:25;22.10;46.10
82183;DHT22;71763;52.220;13.000;2023-09-30T13:51:51;21.90;45.90
82183;DHT22;71763;52.220;13.000;2023-09-30T13:54:16;21.80;45.80
82183;DHT22;71763;52.220;13.000;2023-09-30T13:56:42;21.60;45.80
82183;DHT22;71763;52.220;13.000;2023-09-30T13:59:08;21.40;46.30
82183;DHT22;71763;52.220;13.000;2023-09-30T14:01:34;21.30;46.40
82183;DHT22;71763;52.220;13.000;2023-09-30T14:03:59;21.30;46.40
82183;DHT22;71763;52.220;13.000;2023-09-30T14:06:25;21.30;46.30
82183;DHT22;71763;52.220;13.000;2023-09-30T14:08:51;21.40;46.10
82183;DHT22;71763;52.220;13.000;2023-09-30T14:11:18;21.40;45.80
82183;DHT22;71763;52.220;13.000;2023-09-30T14:13:43;21.40;45.70
82183;DHT22;71763;52.220;13.000;2023-09-30T14:16:09;21.30;45.60
82183;DHT22;71763;52.220;13.000;2023-09-30T14:18:34;21.30;45.40
82183;DHT22;71763;52.220;13.000;2023-09-30T14:21:02;21.30;45.50
82183;DHT22;71763;52.220;13.000;2023-09-30T14:23:28;21.30;45.60
82183;DHT22;71763;52.220;13.000;2023-09-30T14:25:54;21.20;45.50
82183;DHT22;71763;52.220;13.000;2023-09-30T14:28:23;21.10;45.80
82183;DHT22;71763;52.220;13.000;2023-09-30T14:30:49;21.00;46.00
82183;DHT22;71763;52.220;13.000;2023-09-30T14:33:17;21.00;46.20
82183;DHT22;71763;52.220;13.000;2023-09-30T14:35:45;20.90;46.10
82183;DHT22;71763;52.220;13.000;2023-09-30T14:38:11;20.90;46.10
82183;DHT22;71763;52.220;13.000;2023-09-30T14:40:40;20.90;46.00
82183;DHT22;71763;52.220;13.000;2023-09-30T14:43:06;21.00;46.00
82183;DHT22;71763;52.220;13.000;2023-09-30T14:45:36;21.00;45.90
82183;DHT22;71763;52.220;13.000;2023-09-30T14:48:02;21.00;45.90
82183;DHT22;71763;52.220;13.000;2023-09-30T14:50:27;21.00;45.80
82183;DHT22;71763;52.220;13.000;2023-09-30T14:52:53;20.90;45.80
82183;DHT22;71763;52.220;13.000;2023-09-30T14:55:18;20.80;45.80
82183;DHT22;71763;52.220;13.000;2023-09-30T14:57:44;20.80;46.00
82183;DHT22;71763;52.220;13.000;2023-09-30T15:00:10;20.70;46.10
82183;DHT22;71763;52.220;13.000;2023-09-30T15:02:36;20.70;46.20
82183;DHT22;71763;52.220;13.000;2023-09-30T15:05:04;20.60;46.20
82183;DHT22;71763;52.220;13.000;2023-09-30T15:07:30;20.50;46.30
82183;DHT22;71763;52.220;13.000;2023-09-30T15:09:55;20.50;46.20
82183;DHT22;71763;52.220;13.000;2023-09-30T15:12:21;20.40;46.20
82183;DHT22;71763;52.220;13.000;2023-09-30T15:14:46;20.40;46.20
82183;DHT22;71763;52.220;13.000;2023-09-30T15:17:12;20.40;46.20
82183;DHT22;71763;52.220;13.000;2023-09-30T15:19:38;20.40;46.20
82183;DHT22;71763;52.220;13.000;2023-09-30T15:22:03;20.30;46.20
82183;DHT22;71763;52.220;13.000;2023-09-30T15:24:29;20.30;46.30
82183;DHT22;71763;52.220;13.000;2023-09-30T15:26:54;20.20;46.30
82183;DHT22;71763;52.220;13.000;2023-09-30T15:29:20;20.10;46.40